createdAt,value
2019-05-13T00:00:23.507Z,103376.25
2019-05-13T00:02:49.045Z,103376.31
2019-05-13T00:05:14.865Z,103373.47
2019-05-13T00:07:40.349Z,103374.23
2019-05-13T00:10:06.836Z,103379.78
2019-05-13T00:12:32.202Z,103376.03
2019-05-13T00:14:57.682Z,103376.62
2019-05-13T00:17:23.701Z,103379.97
2019-05-13T00:19:49.509Z,103376.92
2019-05-13T00:22:14.934Z,103382.50
2019-05-13T00:24:40.625Z,103380.88
2019-05-13T00:27:06.059Z,103381.44
2019-05-13T00:29:33.862Z,103369.45
2019-05-13T00:31:58.673Z,103375.58
2019-05-13T00:34:24.440Z,103375.67
2019-05-13T00:36:49.917Z,103373.78
2019-05-13T00:39:15.517Z,103377.34
2019-05-13T00:41:41.240Z,103369.81
2019-05-13T00:44:06.711Z,103371.54
2019-05-13T00:46:33.970Z,103370.01
2019-05-13T00:48:59.168Z,103367.98
2019-05-13T00:51:24.622Z,103368.38
2019-05-13T00:53:50.043Z,103359.65
2019-05-13T00:56:23.875Z,103365.36
2019-05-13T00:58:49.201Z,103361.90
2019-05-13T01:01:14.578Z,103362.73
2019-05-13T01:03:39.994Z,103376.30
2019-05-13T01:06:05.948Z,103366.00
2019-05-13T01:08:34.061Z,103363.89
2019-05-13T01:10:59.463Z,103369.53
2019-05-13T01:13:24.901Z,103362.35
2019-05-13T01:15:50.382Z,103365.55
2019-05-13T01:18:15.754Z,103362.16
2019-05-13T01:20:43.880Z,103360.03
2019-05-13T01:23:09.432Z,103363.78
2019-05-13T01:25:35.013Z,103369.42
2019-05-13T01:28:01.098Z,103368.67
2019-05-13T01:30:26.551Z,103370.33
2019-05-13T01:32:54.000Z,103367.78
2019-05-13T01:35:19.416Z,103374.41
2019-05-13T01:37:46.065Z,103373.91
2019-05-13T01:40:20.482Z,103363.43
2019-05-13T01:42:46.029Z,103359.94
2019-05-13T01:45:13.678Z,103364.92
2019-05-13T01:47:39.269Z,103372.80
2019-05-13T01:50:04.893Z,103373.05
2019-05-13T01:52:30.358Z,103368.28
2019-05-13T01:54:55.778Z,103369.31
2019-05-13T01:57:23.664Z,103374.19
2019-05-13T01:59:48.416Z,103374.20
2019-05-13T02:02:13.939Z,103371.81
2019-05-13T02:04:39.319Z,103378.95
2019-05-13T02:07:05.300Z,103378.06
2019-05-13T02:09:33.769Z,103380.56
2019-05-13T02:11:59.710Z,103373.58
2019-05-13T02:14:25.210Z,103372.08
2019-05-13T02:16:50.646Z,103373.17
2019-05-13T02:19:16.079Z,103374.20
2019-05-13T02:21:43.744Z,103378.45
2019-05-13T02:24:08.732Z,103380.34
2019-05-13T02:26:34.632Z,103379.19
2019-05-13T02:29:00.117Z,103369.56
2019-05-13T02:31:40.018Z,103370.30
2019-05-13T02:33:53.240Z,103377.19
2019-05-13T02:36:22.552Z,103383.69
2019-05-13T02:38:45.891Z,103383.44
2019-05-13T02:41:13.413Z,103393.20
2019-05-13T02:43:41.260Z,103390.19
2019-05-13T02:46:05.754Z,103391.09
2019-05-13T02:48:33.100Z,103392.83
2019-05-13T02:50:58.366Z,103399.56
2019-05-13T02:53:24.537Z,103391.57
2019-05-13T02:55:52.376Z,103399.95
2019-05-13T02:58:17.256Z,103391.69
2019-05-13T03:00:44.193Z,103393.70
2019-05-13T03:03:12.824Z,103397.41
2019-05-13T03:05:37.053Z,103404.91
2019-05-13T03:08:03.371Z,103404.61
2019-05-13T03:10:29.151Z,103398.12
2019-05-13T03:12:54.773Z,103404.25
2019-05-13T03:15:23.123Z,103400.69
2019-05-13T03:18:06.541Z,103411.56
2019-05-13T03:20:33.311Z,103414.42
2019-05-13T03:23:02.782Z,103410.48
2019-05-13T03:25:35.686Z,103414.55
2019-05-13T03:28:03.100Z,103420.44
2019-05-13T03:30:28.899Z,103423.18
2019-05-13T03:33:01.228Z,103423.48
2019-05-13T03:35:26.861Z,103424.52
2019-05-13T03:37:48.721Z,103424.97
2019-05-13T03:40:14.138Z,103426.91
2019-05-13T03:42:43.437Z,103428.45
2019-05-13T03:45:08.875Z,103428.02
2019-05-13T03:47:36.704Z,103425.02
2019-05-13T03:50:03.497Z,103433.52
2019-05-13T03:52:33.269Z,103431.31
2019-05-13T03:54:57.334Z,103432.23
2019-05-13T03:57:23.324Z,103438.30
2019-05-13T03:59:52.609Z,103440.31
2019-05-13T04:02:18.268Z,103447.06
2019-05-13T04:04:43.707Z,103440.02
2019-05-13T04:07:09.168Z,103437.62
2019-05-13T04:09:36.265Z,103443.38
2019-05-13T04:12:03.178Z,103442.59
2019-05-13T04:14:29.167Z,103444.94
2019-05-13T04:16:54.708Z,103439.97
2019-05-13T04:19:23.217Z,103450.95
2019-05-13T04:21:47.702Z,103446.48
2019-05-13T04:24:13.155Z,103448.97
2019-05-13T04:26:38.613Z,103456.28
2019-05-13T04:29:04.028Z,103454.86
2019-05-13T04:31:33.040Z,103457.61
2019-05-13T04:33:56.638Z,103460.46
2019-05-13T04:36:23.406Z,103466.87
2019-05-13T04:38:51.974Z,103458.73
2019-05-13T04:41:16.492Z,103459.88
2019-05-13T04:43:43.646Z,103457.80
2019-05-13T04:46:13.604Z,103453.52
2019-05-13T04:48:40.533Z,103459.41
2019-05-13T04:51:04.427Z,103459.64
2019-05-13T04:53:33.225Z,103467.78
2019-05-13T04:55:57.343Z,103464.71
2019-05-13T04:58:32.175Z,103468.69
2019-05-13T05:01:19.177Z,103473.67
2019-05-13T05:03:55.555Z,103476.55
2019-05-13T05:07:07.557Z,103479.30
2019-05-13T05:10:26.381Z,103483.53
2019-05-13T05:13:28.651Z,103475.91
2019-05-13T05:16:46.839Z,103482.72
2019-05-13T05:20:32.299Z,103484.13
2019-05-13T05:23:51.512Z,103480.59
2019-05-13T05:27:23.371Z,103488.52
2019-05-13T05:30:06.042Z,103481.16
2019-05-13T05:32:51.798Z,103488.56
2019-05-13T05:36:15.200Z,103488.04
2019-05-13T05:39:08.463Z,103494.98
2019-05-13T05:41:37.009Z,103489.71
2019-05-13T05:44:04.726Z,103481.93
2019-05-13T05:46:32.544Z,103477.98
2019-05-13T05:49:02.842Z,103482.62
2019-05-13T05:51:32.805Z,103477.90
2019-05-13T05:54:05.140Z,103484.39
2019-05-13T05:56:33.924Z,103484.54
2019-05-13T05:59:03.290Z,103488.25
2019-05-13T06:01:33.118Z,103488.40
2019-05-13T06:04:01.514Z,103494.02
2019-05-13T06:06:27.377Z,103491.90
2019-05-13T06:08:52.955Z,103493.81
2019-05-13T06:11:18.532Z,103493.20
2019-05-13T06:13:43.978Z,103490.70
2019-05-13T06:16:09.467Z,103504.50
2019-05-13T06:18:35.005Z,103499.27
2019-05-13T06:21:01.765Z,103493.63
2019-05-13T06:23:27.351Z,103496.58
2019-05-13T06:25:52.966Z,103499.12
2019-05-13T06:28:21.663Z,103500.02
2019-05-13T06:30:46.667Z,103505.51
2019-05-13T06:33:12.509Z,103501.25
2019-05-13T06:35:38.011Z,103499.12
2019-05-13T06:38:03.437Z,103504.13
2019-05-13T06:40:31.687Z,103509.95
2019-05-13T06:42:56.326Z,103508.09
2019-05-13T06:45:22.169Z,103510.02
2019-05-13T06:47:48.028Z,103517.48
2019-05-13T06:50:13.860Z,103509.98
2019-05-13T06:52:48.339Z,103511.82
2019-05-13T06:55:13.845Z,103511.70
2019-05-13T06:57:39.347Z,103498.39
2019-05-13T07:00:05.441Z,103504.38
2019-05-13T07:02:33.022Z,103502.73
2019-05-13T07:05:07.516Z,103504.31
2019-05-13T07:07:33.245Z,103503.05
2019-05-13T07:09:58.884Z,103504.12
2019-05-13T07:12:24.615Z,103505.03
2019-05-13T07:14:51.771Z,103507.53
2019-05-13T07:17:23.139Z,103513.91
2019-05-13T07:19:48.625Z,103510.76
2019-05-13T07:22:14.668Z,103510.04
2019-05-13T07:24:41.452Z,103513.81
2019-05-13T07:27:07.133Z,103507.41
2019-05-13T07:29:32.825Z,103497.92
2019-05-13T07:31:58.584Z,103500.44
2019-05-13T07:34:24.764Z,103503.52
2019-05-13T07:36:51.323Z,103498.73
2019-05-13T07:39:16.837Z,103497.94
2019-05-13T07:41:44.572Z,103498.10
2019-05-13T07:44:11.872Z,103493.38
2019-05-13T07:46:37.227Z,103492.41
2019-05-13T07:49:04.296Z,103497.04
2019-05-13T07:51:31.610Z,103501.15
2019-05-13T07:53:57.472Z,103499.32
2019-05-13T07:56:24.010Z,103499.28
2019-05-13T07:58:52.145Z,103508.31
2019-05-13T08:01:16.603Z,103505.20
2019-05-13T08:03:42.379Z,103504.53
2019-05-13T08:06:08.057Z,103501.26
2019-05-13T08:08:33.610Z,103506.53
2019-05-13T08:11:01.090Z,103504.28
2019-05-13T08:13:26.234Z,103502.25
2019-05-13T08:15:54.375Z,103503.28
2019-05-13T08:18:18.915Z,103502.78
2019-05-13T08:20:44.636Z,103508.17
2019-05-13T08:23:11.803Z,103507.52
2019-05-13T08:25:37.773Z,103508.03
2019-05-13T08:28:03.679Z,103511.96
2019-05-13T08:30:31.686Z,103509.52
2019-05-13T08:32:56.207Z,103514.98
2019-05-13T08:35:22.601Z,103514.98
2019-05-13T08:37:48.961Z,103512.19
2019-05-13T08:40:15.033Z,103506.12
2019-05-13T08:42:41.507Z,103510.86
2019-05-13T08:45:11.855Z,103511.81
2019-05-13T08:47:36.516Z,103504.13
2019-05-13T08:50:04.538Z,103495.72
2019-05-13T08:52:31.316Z,103500.34
2019-05-13T08:55:01.362Z,103499.48
2019-05-13T08:57:26.320Z,103499.34
2019-05-13T08:59:51.845Z,103501.17
2019-05-13T09:02:17.332Z,103505.80
2019-05-13T09:04:43.140Z,103495.83
2019-05-13T09:07:08.594Z,103490.81
2019-05-13T09:09:41.982Z,103494.69
2019-05-13T09:12:07.647Z,103500.69
2019-05-13T09:15:58.878Z,103497.23
2019-05-13T09:18:24.332Z,103495.69
2019-05-13T09:20:52.074Z,103499.81
2019-05-13T09:23:17.298Z,103501.97
2019-05-13T09:25:43.021Z,103500.84
2019-05-13T09:28:08.493Z,103502.78
2019-05-13T09:30:34.126Z,103496.20
2019-05-13T09:33:01.813Z,103495.48
2019-05-13T09:35:26.755Z,103504.68
2019-05-13T09:37:52.482Z,103500.13
2019-05-13T09:40:18.037Z,103500.47
2019-05-13T09:42:51.616Z,103503.61
2019-05-13T09:45:12.252Z,103498.03
2019-05-13T09:47:37.948Z,103502.45
2019-05-13T09:50:04.598Z,103492.51
2019-05-13T09:52:31.945Z,103489.89
2019-05-13T09:54:57.493Z,103490.50
2019-05-13T09:57:23.242Z,103489.48
2019-05-13T09:59:48.719Z,103490.09
2019-05-13T10:02:14.166Z,103489.58
2019-05-13T10:04:43.213Z,103487.84
2019-05-13T10:07:06.818Z,103488.66
2019-05-13T10:09:32.958Z,103483.75
2019-05-13T10:11:58.612Z,103485.38
2019-05-13T10:14:24.060Z,103486.33
2019-05-13T10:16:51.515Z,103475.62
2019-05-13T10:19:17.220Z,103490.50
2019-05-13T10:21:42.716Z,103486.73
2019-05-13T10:24:08.432Z,103480.56
2019-05-13T10:26:34.023Z,103480.28
2019-05-13T10:28:59.602Z,103476.77
2019-05-13T10:31:25.038Z,103482.42
2019-05-13T10:33:51.396Z,103483.09
2019-05-13T10:36:17.538Z,103479.72
2019-05-13T10:38:42.997Z,103478.16
2019-05-13T10:41:08.456Z,103473.17
2019-05-13T10:43:40.055Z,103468.75
2019-05-13T10:46:02.569Z,103469.12
2019-05-13T10:48:28.514Z,103472.22
2019-05-13T10:50:54.337Z,103461.59
2019-05-13T10:53:22.156Z,103456.58
2019-05-13T10:55:46.992Z,103447.88
2019-05-13T10:58:12.523Z,103449.60
2019-05-13T11:00:54.307Z,103447.35
2019-05-13T11:03:22.738Z,103447.02
2019-05-13T11:05:48.393Z,103444.69
2019-05-13T11:08:13.861Z,103443.23
2019-05-13T11:10:41.966Z,103437.80
2019-05-13T11:13:10.663Z,103427.85
2019-05-13T11:15:41.115Z,103439.19
2019-05-13T11:18:03.132Z,103432.72
2019-05-13T11:20:29.018Z,103416.85
2019-05-13T11:22:54.739Z,103418.51
2019-05-13T11:25:21.844Z,103410.50
2019-05-13T11:27:47.628Z,103422.06
2019-05-13T11:30:13.284Z,103421.60
2019-05-13T11:32:38.819Z,103419.28
2019-05-13T11:35:04.279Z,103423.95
2019-05-13T11:37:31.845Z,103405.19
2019-05-13T11:39:56.869Z,103409.88
2019-05-13T11:42:22.984Z,103398.23
2019-05-13T11:44:52.544Z,103410.77
2019-05-13T11:47:16.358Z,103402.42
2019-05-13T11:49:42.519Z,103396.78
2019-05-13T11:52:08.261Z,103398.31
2019-05-13T11:54:33.707Z,103396.47
2019-05-13T11:57:05.960Z,103391.53
2019-05-13T11:59:28.557Z,103382.20
2019-05-13T12:04:23.960Z,103374.62
2019-05-13T12:06:50.235Z,103376.09
2019-05-13T12:09:15.816Z,103377.05
2019-05-13T12:11:41.410Z,103371.03
2019-05-13T12:14:06.905Z,103365.49
2019-05-13T12:16:35.025Z,103362.72
2019-05-13T12:19:03.094Z,103367.25
2019-05-13T12:21:26.849Z,103366.73
2019-05-13T12:23:53.033Z,103357.20
2019-05-13T12:26:18.603Z,103353.88
2019-05-13T12:28:44.073Z,103349.55
2019-05-13T12:31:12.035Z,103356.88
2019-05-13T12:33:36.784Z,103346.42
2019-05-13T12:36:02.491Z,103341.91
2019-05-13T12:38:32.622Z,103334.57
2019-05-13T12:40:57.419Z,103339.11
2019-05-13T12:43:24.312Z,103339.27
2019-05-13T12:45:53.045Z,103341.75
2019-05-13T12:48:17.168Z,103332.16
2019-05-13T12:50:43.396Z,103322.27
2019-05-13T12:53:12.275Z,103317.54
2019-05-13T12:55:36.440Z,103326.05
2019-05-13T12:58:02.879Z,103320.32
2019-05-13T13:00:28.938Z,103320.63
2019-05-13T13:02:54.917Z,103319.24
2019-05-13T13:05:24.014Z,103312.44
2019-05-13T13:08:13.479Z,103312.99
2019-05-13T13:10:15.912Z,103310.52
2019-05-13T13:12:43.446Z,103317.67
2019-05-13T13:15:32.913Z,103311.61
2019-05-13T13:17:36.438Z,103295.89
2019-05-13T13:20:08.804Z,103307.24
2019-05-13T13:22:31.430Z,103307.09
2019-05-13T13:24:57.542Z,103302.22
2019-05-13T13:27:57.417Z,103296.09
2019-05-13T13:29:58.951Z,103299.88
2019-05-13T13:32:17.574Z,103296.41
2019-05-13T13:34:44.286Z,103288.08
2019-05-13T13:37:09.992Z,103280.24
2019-05-13T13:39:44.853Z,103275.86
2019-05-13T13:42:13.016Z,103285.63
2019-05-13T13:44:37.860Z,103270.65
2019-05-13T13:47:03.418Z,103282.30
2019-05-13T13:49:28.781Z,103276.94
2019-05-13T13:51:54.605Z,103280.39
2019-05-13T13:54:22.369Z,103282.27
2019-05-13T13:56:47.480Z,103278.58
2019-05-13T13:59:14.118Z,103265.28
2019-05-13T14:01:40.054Z,103271.94
2019-05-13T14:04:05.587Z,103262.86
2019-05-13T14:07:02.788Z,103376.59
2019-05-13T14:08:58.235Z,103267.15
2019-05-13T14:11:27.033Z,103253.80
2019-05-13T14:13:52.501Z,103260.93
2019-05-13T14:16:28.049Z,103254.25
2019-05-13T14:18:45.125Z,103240.73
2019-05-13T14:21:10.669Z,103246.03
2019-05-13T14:23:37.980Z,103245.07
2019-05-13T14:26:03.579Z,103239.92
2019-05-13T14:28:32.517Z,103237.27
2019-05-13T14:30:57.046Z,103247.12
2019-05-13T14:33:22.585Z,103243.25
2019-05-13T14:35:48.105Z,103231.74
2019-05-13T14:38:13.994Z,103221.94
2019-05-13T14:40:39.443Z,103225.90
2019-05-13T14:43:05.179Z,103222.83
2019-05-13T14:45:31.762Z,103222.25
2019-05-13T14:47:57.373Z,103218.61
2019-05-13T14:50:22.878Z,103213.59
2019-05-13T14:52:48.453Z,103213.78
2019-05-13T14:55:14.058Z,103221.70
2019-05-13T14:57:41.890Z,103213.97
2019-05-13T15:00:08.539Z,103210.56
2019-05-13T15:02:35.941Z,103217.84
2019-05-13T15:05:02.676Z,103208.90
2019-05-13T15:07:28.224Z,103207.41
2019-05-13T15:09:53.675Z,103209.46
2019-05-13T15:12:21.448Z,103207.71
2019-05-13T15:15:00.877Z,103207.17
2019-05-13T15:17:25.739Z,103202.94
2019-05-13T15:19:52.487Z,103204.62
2019-05-13T15:22:18.117Z,103202.02
2019-05-13T15:24:43.573Z,103210.61
2019-05-13T15:27:09.051Z,103207.38
2019-05-13T15:29:34.770Z,103201.58
2019-05-13T15:32:02.062Z,103200.50
2019-05-13T15:34:27.671Z,103205.13
2019-05-13T15:36:53.160Z,103194.66
2019-05-13T15:39:19.048Z,103192.68
2019-05-13T15:41:54.286Z,103191.59
2019-05-13T15:44:21.951Z,103182.73
2019-05-13T15:46:47.279Z,103176.02
2019-05-13T15:49:12.724Z,103179.33
2019-05-13T15:51:38.190Z,103173.47
2019-05-13T15:54:03.637Z,103169.82
2019-05-13T16:03:21.055Z,103179.02
2019-05-13T16:05:46.686Z,103177.70
2019-05-13T16:08:13.768Z,103174.66
2019-05-13T16:10:41.472Z,103158.80
2019-05-13T16:13:06.688Z,103168.45
2019-05-13T16:15:32.229Z,103172.45
2019-05-13T16:18:08.404Z,103165.67
2019-05-13T16:20:35.839Z,103165.54
2019-05-13T16:23:02.376Z,103157.83
2019-05-13T16:25:28.065Z,103147.26
2019-05-13T16:27:53.514Z,103155.37
2019-05-13T16:30:19.450Z,103161.80
2019-05-13T16:32:47.995Z,103154.67
2019-05-13T16:35:13.581Z,103160.29
2019-05-13T16:37:41.296Z,103153.46
2019-05-13T16:40:07.298Z,103149.15
2019-05-13T16:42:32.824Z,103151.47
2019-05-13T16:44:58.400Z,103154.94
2019-05-13T16:47:23.939Z,103146.77
2019-05-13T16:49:49.377Z,103151.97
2019-05-13T16:52:15.030Z,103155.44
2019-05-13T16:54:42.480Z,103144.83
2019-05-13T16:57:08.257Z,103148.51
2019-05-13T16:59:33.770Z,103147.25
2019-05-13T17:02:01.572Z,103153.72
2019-05-13T17:04:26.694Z,103149.23
2019-05-13T17:06:53.160Z,103150.26
2019-05-13T17:09:18.946Z,103150.62
2019-05-13T17:11:44.658Z,103136.02
2019-05-13T17:14:10.106Z,103138.98
2019-05-13T17:16:36.055Z,103139.66
2019-05-13T17:19:01.770Z,103132.73
2019-05-13T17:21:27.422Z,103135.02
2019-05-13T17:23:53.233Z,103132.09
2019-05-13T17:26:18.721Z,103137.63
2019-05-13T17:28:44.488Z,103127.34
2019-05-13T17:31:11.484Z,103136.05
2019-05-13T17:33:38.352Z,103130.59
2019-05-13T17:36:03.835Z,103128.41
2019-05-13T17:38:29.312Z,103127.91
2019-05-13T17:40:55.069Z,103130.01
2019-05-13T17:43:21.303Z,103123.55
2019-05-13T17:45:47.073Z,103125.63
2019-05-13T17:48:25.756Z,103122.66
2019-05-13T17:50:41.347Z,103123.76
2019-05-13T17:53:07.234Z,103127.23
2019-05-13T17:55:32.709Z,103119.08
2019-05-13T17:57:58.110Z,103119.61
2019-05-13T18:00:24.152Z,103119.44
2019-05-13T18:02:51.403Z,103117.03
2019-05-13T18:05:18.777Z,103112.66
2019-05-13T18:07:44.165Z,103121.73
2019-05-13T18:10:14.168Z,103123.09
2019-05-13T18:12:38.365Z,103115.48
2019-05-13T18:15:08.407Z,103116.50
2019-05-13T18:17:34.132Z,103119.66
2019-05-13T18:20:02.071Z,103113.19
2019-05-13T18:22:27.041Z,103112.34
2019-05-13T18:24:52.670Z,103109.21
2019-05-13T18:27:18.417Z,103107.64
2019-05-13T18:29:44.245Z,103115.16
2019-05-13T18:32:12.128Z,103105.45
2019-05-13T18:34:37.176Z,103107.34
2019-05-13T18:37:02.756Z,103095.86
2019-05-13T18:39:29.214Z,103098.32
2019-05-13T18:41:54.759Z,103097.07
2019-05-13T18:44:20.437Z,103100.39
2019-05-13T18:46:45.869Z,103102.68
2019-05-13T18:49:12.363Z,103104.39
2019-05-13T18:51:38.333Z,103105.27
2019-05-13T18:54:04.051Z,103102.63
2019-05-13T18:56:29.655Z,103098.30
2019-05-13T18:58:55.195Z,103102.33
2019-05-13T19:01:21.606Z,103099.88
2019-05-13T19:03:47.186Z,103100.92
2019-05-13T19:06:12.481Z,103106.48
2019-05-13T19:08:38.180Z,103109.23
2019-05-13T19:11:03.699Z,103113.25
2019-05-13T19:13:32.100Z,103116.86
2019-05-13T19:15:56.678Z,103119.13
2019-05-13T19:18:22.325Z,103118.60
2019-05-13T19:20:51.377Z,103123.95
2019-05-13T19:23:17.437Z,103134.87
2019-05-13T19:25:42.983Z,103130.16
2019-05-13T19:28:11.841Z,103125.31
2019-05-13T19:30:37.732Z,103134.50
2019-05-13T19:33:03.260Z,103126.89
2019-05-13T19:35:32.372Z,103126.14
2019-05-13T19:37:57.910Z,103142.44
2019-05-13T19:40:23.594Z,103132.44
2019-05-13T19:42:50.960Z,103131.34
2019-05-13T19:45:16.279Z,103132.55
2019-05-13T19:47:42.094Z,103134.08
2019-05-13T19:50:08.330Z,103130.61
2019-05-13T19:52:33.794Z,103135.86
2019-05-13T19:55:01.431Z,103136.77
2019-05-13T19:57:26.412Z,103134.16
2019-05-13T19:59:51.864Z,103138.33
2019-05-13T20:02:17.732Z,103133.91
2019-05-13T20:04:43.392Z,103137.61
2019-05-13T20:07:08.905Z,103138.83
2019-05-13T20:09:34.649Z,103129.06
2019-05-13T20:12:01.981Z,103130.11
2019-05-13T20:14:30.674Z,103133.36
2019-05-13T20:16:56.397Z,103139.48
2019-05-13T20:19:23.369Z,103140.79
2019-05-13T20:21:48.886Z,103139.03
2019-05-13T20:24:14.524Z,103154.47
2019-05-13T20:26:41.425Z,103147.63
2019-05-13T20:29:09.418Z,103145.53
2019-05-13T20:31:34.488Z,103141.70
2019-05-13T20:34:01.695Z,103144.63
2019-05-13T20:36:27.668Z,103144.80
2019-05-13T20:38:53.249Z,103148.97
2019-05-13T20:41:18.716Z,103145.34
2019-05-13T20:43:44.200Z,103146.25
2019-05-13T20:46:11.319Z,103149.77
2019-05-13T20:48:37.189Z,103148.70
2019-05-13T20:51:02.883Z,103160.97
2019-05-13T20:53:28.263Z,103159.78
2019-05-13T20:55:53.720Z,103166.30
2019-05-13T20:58:21.304Z,103167.89
2019-05-13T21:00:46.723Z,103169.81
2019-05-13T21:03:12.322Z,103164.33
2019-05-13T21:05:37.904Z,103167.15
2019-05-13T21:08:05.163Z,103168.55
2019-05-13T21:10:31.497Z,103165.69
2019-05-13T21:12:57.073Z,103161.94
2019-05-13T21:15:22.646Z,103166.00
2019-05-13T21:17:51.580Z,103164.33
2019-05-13T21:20:22.038Z,103163.47
2019-05-13T21:22:44.816Z,103165.00
2019-05-13T21:25:10.455Z,103173.42
2019-05-13T21:27:35.803Z,103175.17
2019-05-13T21:30:03.343Z,103179.09
2019-05-13T21:32:28.659Z,103179.95
2019-05-13T21:34:56.483Z,103173.27
2019-05-13T21:37:22.275Z,103183.58
2019-05-13T21:39:48.053Z,103184.03
2019-05-13T21:42:13.503Z,103187.95
2019-05-13T21:44:38.949Z,103179.73
2019-05-13T21:47:04.299Z,103181.16
2019-05-13T21:49:31.922Z,103183.77
2019-05-13T21:51:58.079Z,103182.69
2019-05-13T21:54:23.455Z,103177.34
2019-05-13T21:56:48.872Z,103184.85
2019-05-13T21:59:14.332Z,103186.84
2019-05-13T22:01:42.089Z,103177.98
2019-05-13T22:04:07.172Z,103180.52
2019-05-13T22:06:32.887Z,103171.66
2019-05-13T22:08:58.617Z,103171.02
2019-05-13T22:11:24.364Z,103166.63
2019-05-13T22:13:51.407Z,103170.27
2019-05-13T22:16:16.962Z,103170.47
2019-05-13T22:18:42.324Z,103174.36
2019-05-13T22:21:07.797Z,103175.76
2019-05-13T22:23:33.223Z,103172.70
2019-05-13T22:26:01.795Z,103168.77
2019-05-13T22:28:27.351Z,103161.91
2019-05-13T22:30:53.094Z,103160.75
2019-05-13T22:33:18.560Z,103157.70
2019-05-13T22:35:44.010Z,103157.66
2019-05-13T22:38:12.056Z,103163.52
2019-05-13T22:40:36.663Z,103163.91
2019-05-13T22:43:02.150Z,103163.39
2019-05-13T22:45:27.620Z,103155.90
2019-05-13T22:47:53.083Z,103162.41
2019-05-13T22:50:18.613Z,103155.55
2019-05-13T22:52:44.073Z,103155.47
2019-05-13T22:55:11.555Z,103155.03
2019-05-13T22:57:36.821Z,103156.49
2019-05-13T23:00:02.273Z,103157.02
2019-05-13T23:02:27.834Z,103149.36
2019-05-13T23:04:53.163Z,103147.49
2019-05-13T23:07:18.886Z,103154.68
2019-05-13T23:09:44.334Z,103153.30
2019-05-13T23:12:12.108Z,103152.73
2019-05-13T23:14:37.022Z,103152.75
2019-05-13T23:17:02.458Z,103150.64
2019-05-13T23:19:27.905Z,103149.98
2019-05-13T23:21:53.362Z,103150.41
2019-05-13T23:24:18.845Z,103146.94
2019-05-13T23:26:44.268Z,103147.16
2019-05-13T23:29:09.729Z,103149.65
2019-05-13T23:31:35.189Z,103143.09
2019-05-13T23:34:01.429Z,103141.27
2019-05-13T23:36:27.422Z,103133.80
2019-05-13T23:38:52.727Z,103130.59
2019-05-13T23:41:18.246Z,103136.06
2019-05-13T23:43:44.015Z,103130.69
2019-05-13T23:46:11.608Z,103129.42
2019-05-13T23:48:36.812Z,103134.44
2019-05-13T23:51:02.291Z,103128.16
2019-05-13T23:53:27.977Z,103134.89
2019-05-13T23:55:53.680Z,103138.08
2019-05-13T23:58:21.496Z,103130.46
